sensor_id;sensor_type;location;lat;lon;timestamp;P1;durP1;ratioP1;P2;durP2;ratioP2
75169;SDS011;63749;49.186;9.222;2023-06-26T00:00:44;11.53;;;7.10;;
75169;SDS011;63749;49.186;9.222;2023-06-26T00:03:09;8.63;;;6.67;;
75169;SDS011;63749;49.186;9.222;2023-06-26T00:05:40;10.45;;;6.65;;
75169;SDS011;63749;49.186;9.222;2023-06-26T00:08:08;9.15;;;7.00;;
75169;SDS011;63749;49.186;9.222;2023-06-26T00:10:34;10.23;;;7.30;;
75169;SDS011;63749;49.186;9.222;2023-06-26T00:12:59;11.18;;;6.50;;
75169;SDS011;63749;49.186;9.222;2023-06-26T00:15:25;10.43;;;6.87;;
75169;SDS011;63749;49.186;9.222;2023-06-26T00:17:51;9.73;;;6.70;;
75169;SDS011;63749;49.186;9.222;2023-06-26T00:20:16;10.93;;;6.75;;
75169;SDS011;63749;49.186;9.222;2023-06-26T00:22:43;8.47;;;6.03;;
75169;SDS011;63749;49.186;9.222;2023-06-26T00:25:10;9.75;;;6.93;;
75169;SDS011;63749;49.186;9.222;2023-06-26T00:27:35;10.53;;;6.73;;
75169;SDS011;63749;49.186;9.222;2023-06-26T00:30:00;8.00;;;6.22;;
75169;SDS011;63749;49.186;9.222;2023-06-26T00:32:26;8.23;;;5.87;;
75169;SDS011;63749;49.186;9.222;2023-06-26T00:34:51;13.70;;;6.30;;
75169;SDS011;63749;49.186;9.222;2023-06-26T00:37:18;9.20;;;6.10;;
75169;SDS011;63749;49.186;9.222;2023-06-26T00:39:43;8.73;;;6.20;;
75169;SDS011;63749;49.186;9.222;2023-06-26T00:42:08;8.33;;;5.87;;
75169;SDS011;63749;49.186;9.222;2023-06-26T00:44:34;8.33;;;6.20;;
75169;SDS011;63749;49.186;9.222;2023-06-26T00:46:59;8.73;;;6.33;;
75169;SDS011;63749;49.186;9.222;2023-06-26T00:49:24;7.70;;;6.20;;
75169;SDS011;63749;49.186;9.222;2023-06-26T00:51:51;10.13;;;6.40;;
75169;SDS011;63749;49.186;9.222;2023-06-26T00:54:16;9.07;;;6.60;;
75169;SDS011;63749;49.186;9.222;2023-06-26T00:56:45;9.55;;;6.55;;
75169;SDS011;63749;49.186;9.222;2023-06-26T00:59:12;8.82;;;6.55;;
75169;SDS011;63749;49.186;9.222;2023-06-26T01:01:37;10.53;;;6.40;;
75169;SDS011;63749;49.186;9.222;2023-06-26T01:04:03;9.55;;;6.65;;
75169;SDS011;63749;49.186;9.222;2023-06-26T01:06:28;9.93;;;6.77;;
75169;SDS011;63749;49.186;9.222;2023-06-26T01:09:00;8.27;;;6.28;;
75169;SDS011;63749;49.186;9.222;2023-06-26T01:11:26;9.23;;;6.33;;
75169;SDS011;63749;49.186;9.222;2023-06-26T01:13:52;9.38;;;6.50;;
75169;SDS011;63749;49.186;9.222;2023-06-26T01:16:20;9.00;;;6.63;;
75169;SDS011;63749;49.186;9.222;2023-06-26T01:18:46;9.40;;;6.60;;
75169;SDS011;63749;49.186;9.222;2023-06-26T01:21:13;8.85;;;6.53;;
75169;SDS011;63749;49.186;9.222;2023-06-26T01:26:19;8.45;;;6.25;;
75169;SDS011;63749;49.186;9.222;2023-06-26T01:28:46;9.50;;;6.37;;
75169;SDS011;63749;49.186;9.222;2023-06-26T01:31:11;8.82;;;6.60;;
75169;SDS011;63749;49.186;9.222;2023-06-26T01:33:39;10.98;;;6.05;;
75169;SDS011;63749;49.186;9.222;2023-06-26T01:36:06;10.55;;;6.97;;
75169;SDS011;63749;49.186;9.222;2023-06-26T01:38:32;8.40;;;6.30;;
75169;SDS011;63749;49.186;9.222;2023-06-26T01:40:57;9.52;;;6.80;;
75169;SDS011;63749;49.186;9.222;2023-06-26T01:46:22;9.73;;;6.97;;
75169;SDS011;63749;49.186;9.222;2023-06-26T01:48:54;11.18;;;6.75;;
75169;SDS011;63749;49.186;9.222;2023-06-26T01:51:34;8.75;;;6.60;;
75169;SDS011;63749;49.186;9.222;2023-06-26T01:54:03;10.07;;;6.97;;
75169;SDS011;63749;49.186;9.222;2023-06-26T01:56:36;9.30;;;6.63;;
75169;SDS011;63749;49.186;9.222;2023-06-26T01:59:03;14.55;;;6.32;;
75169;SDS011;63749;49.186;9.222;2023-06-26T02:01:30;9.27;;;6.88;;
75169;SDS011;63749;49.186;9.222;2023-06-26T02:03:58;9.98;;;6.50;;
75169;SDS011;63749;49.186;9.222;2023-06-26T02:06:23;9.97;;;6.77;;
75169;SDS011;63749;49.186;9.222;2023-06-26T02:08:49;10.83;;;6.40;;
75169;SDS011;63749;49.186;9.222;2023-06-26T02:11:14;10.40;;;7.23;;
75169;SDS011;63749;49.186;9.222;2023-06-26T02:13:39;10.70;;;6.30;;
75169;SDS011;63749;49.186;9.222;2023-06-26T02:16:05;9.60;;;7.00;;
75169;SDS011;63749;49.186;9.222;2023-06-26T02:18:30;11.00;;;6.80;;
75169;SDS011;63749;49.186;9.222;2023-06-26T02:20:55;9.47;;;6.67;;
75169;SDS011;63749;49.186;9.222;2023-06-26T02:23:21;10.60;;;6.70;;
75169;SDS011;63749;49.186;9.222;2023-06-26T02:25:46;10.93;;;7.20;;
75169;SDS011;63749;49.186;9.222;2023-06-26T02:28:11;9.00;;;6.53;;
75169;SDS011;63749;49.186;9.222;2023-06-26T02:30:37;9.13;;;6.60;;
75169;SDS011;63749;49.186;9.222;2023-06-26T02:33:02;9.23;;;6.60;;
75169;SDS011;63749;49.186;9.222;2023-06-26T02:35:27;9.77;;;6.80;;
75169;SDS011;63749;49.186;9.222;2023-06-26T02:37:52;9.40;;;6.73;;
75169;SDS011;63749;49.186;9.222;2023-06-26T02:40:18;9.37;;;6.90;;
75169;SDS011;63749;49.186;9.222;2023-06-26T02:42:43;11.13;;;7.40;;
75169;SDS011;63749;49.186;9.222;2023-06-26T02:45:09;12.50;;;8.27;;
75169;SDS011;63749;49.186;9.222;2023-06-26T02:47:34;11.68;;;8.63;;
75169;SDS011;63749;49.186;9.222;2023-06-26T02:49:59;13.27;;;9.10;;
75169;SDS011;63749;49.186;9.222;2023-06-26T02:52:25;12.37;;;8.50;;
75169;SDS011;63749;49.186;9.222;2023-06-26T02:54:53;12.55;;;8.73;;
75169;SDS011;63749;49.186;9.222;2023-06-26T02:57:18;12.30;;;8.03;;
75169;SDS011;63749;49.186;9.222;2023-06-26T02:59:44;12.57;;;8.60;;
75169;SDS011;63749;49.186;9.222;2023-06-26T03:02:09;11.97;;;8.27;;
75169;SDS011;63749;49.186;9.222;2023-06-26T03:04:34;13.00;;;8.33;;
75169;SDS011;63749;49.186;9.222;2023-06-26T03:07:01;13.13;;;8.03;;
75169;SDS011;63749;49.186;9.222;2023-06-26T03:09:27;13.77;;;8.70;;
75169;SDS011;63749;49.186;9.222;2023-06-26T03:11:53;13.63;;;8.07;;
75169;SDS011;63749;49.186;9.222;2023-06-26T03:14:20;12.05;;;8.60;;
75169;SDS011;63749;49.186;9.222;2023-06-26T03:16:45;11.13;;;8.57;;
75169;SDS011;63749;49.186;9.222;2023-06-26T03:19:11;12.98;;;8.50;;
75169;SDS011;63749;49.186;9.222;2023-06-26T03:21:36;14.30;;;8.70;;
75169;SDS011;63749;49.186;9.222;2023-06-26T03:24:01;11.77;;;8.30;;
75169;SDS011;63749;49.186;9.222;2023-06-26T03:26:27;15.00;;;8.87;;
75169;SDS011;63749;49.186;9.222;2023-06-26T03:28:53;13.90;;;8.88;;
75169;SDS011;63749;49.186;9.222;2023-06-26T03:31:19;11.48;;;8.30;;
75169;SDS011;63749;49.186;9.222;2023-06-26T03:33:45;11.93;;;8.23;;
75169;SDS011;63749;49.186;9.222;2023-06-26T03:36:11;13.10;;;8.23;;
75169;SDS011;63749;49.186;9.222;2023-06-26T03:38:36;11.97;;;8.33;;
75169;SDS011;63749;49.186;9.222;2023-06-26T03:41:01;10.37;;;7.60;;
75169;SDS011;63749;49.186;9.222;2023-06-26T03:43:27;10.60;;;7.90;;
75169;SDS011;63749;49.186;9.222;2023-06-26T03:45:52;18.20;;;7.90;;
75169;SDS011;63749;49.186;9.222;2023-06-26T03:48:17;11.07;;;7.67;;
75169;SDS011;63749;49.186;9.222;2023-06-26T03:50:43;11.83;;;8.63;;
75169;SDS011;63749;49.186;9.222;2023-06-26T03:53:09;11.60;;;8.30;;
75169;SDS011;63749;49.186;9.222;2023-06-26T03:55:34;11.67;;;8.20;;
75169;SDS011;63749;49.186;9.222;2023-06-26T03:57:59;14.17;;;8.93;;
75169;SDS011;63749;49.186;9.222;2023-06-26T04:00:25;12.23;;;8.27;;
75169;SDS011;63749;49.186;9.222;2023-06-26T04:02:50;11.98;;;8.40;;
75169;SDS011;63749;49.186;9.222;2023-06-26T04:05:16;13.20;;;8.73;;
75169;SDS011;63749;49.186;9.222;2023-06-26T04:07:42;12.85;;;8.30;;
75169;SDS011;63749;49.186;9.222;2023-06-26T04:10:07;12.03;;;8.63;;
75169;SDS011;63749;49.186;9.222;2023-06-26T04:12:33;13.15;;;8.50;;
75169;SDS011;63749;49.186;9.222;2023-06-26T04:14:58;11.33;;;8.50;;
75169;SDS011;63749;49.186;9.222;2023-06-26T04:17:24;12.03;;;8.70;;
75169;SDS011;63749;49.186;9.222;2023-06-26T04:19:49;13.33;;;8.60;;
75169;SDS011;63749;49.186;9.222;2023-06-26T04:22:14;12.67;;;8.30;;
75169;SDS011;63749;49.186;9.222;2023-06-26T04:24:40;12.60;;;8.27;;
75169;SDS011;63749;49.186;9.222;2023-06-26T04:27:05;10.80;;;7.90;;
75169;SDS011;63749;49.186;9.222;2023-06-26T04:29:31;10.57;;;7.82;;
75169;SDS011;63749;49.186;9.222;2023-06-26T04:31:56;10.97;;;7.73;;
75169;SDS011;63749;49.186;9.222;2023-06-26T04:34:25;11.60;;;7.90;;
75169;SDS011;63749;49.186;9.222;2023-06-26T04:36:51;19.20;;;8.55;;
75169;SDS011;63749;49.186;9.222;2023-06-26T04:39:17;13.60;;;8.10;;
75169;SDS011;63749;49.186;9.222;2023-06-26T04:41:43;11.90;;;8.40;;
75169;SDS011;63749;49.186;9.222;2023-06-26T04:44:09;13.38;;;8.40;;
75169;SDS011;63749;49.186;9.222;2023-06-26T04:46:34;12.57;;;8.17;;
75169;SDS011;63749;49.186;9.222;2023-06-26T04:49:00;12.17;;;8.77;;
75169;SDS011;63749;49.186;9.222;2023-06-26T04:51:28;12.23;;;8.20;;
75169;SDS011;63749;49.186;9.222;2023-06-26T04:53:53;12.13;;;8.50;;
75169;SDS011;63749;49.186;9.222;2023-06-26T04:56:19;13.00;;;8.07;;
75169;SDS011;63749;49.186;9.222;2023-06-26T04:58:44;14.93;;;8.93;;
75169;SDS011;63749;49.186;9.222;2023-06-26T05:01:10;12.90;;;8.87;;
75169;SDS011;63749;49.186;9.222;2023-06-26T05:03:35;12.10;;;8.70;;
75169;SDS011;63749;49.186;9.222;2023-06-26T05:06:01;13.52;;;8.90;;
75169;SDS011;63749;49.186;9.222;2023-06-26T05:08:27;13.00;;;8.40;;
75169;SDS011;63749;49.186;9.222;2023-06-26T05:10:52;15.50;;;9.05;;
75169;SDS011;63749;49.186;9.222;2023-06-26T05:13:18;11.03;;;8.60;;
75169;SDS011;63749;49.186;9.222;2023-06-26T05:15:45;12.65;;;8.30;;
75169;SDS011;63749;49.186;9.222;2023-06-26T05:18:11;14.32;;;8.68;;
75169;SDS011;63749;49.186;9.222;2023-06-26T05:20:36;16.57;;;8.60;;
75169;SDS011;63749;49.186;9.222;2023-06-26T05:23:02;15.05;;;8.70;;
75169;SDS011;63749;49.186;9.222;2023-06-26T05:25:32;17.83;;;8.52;;
75169;SDS011;63749;49.186;9.222;2023-06-26T05:27:59;11.70;;;8.33;;
75169;SDS011;63749;49.186;9.222;2023-06-26T05:30:25;12.25;;;8.52;;
75169;SDS011;63749;49.186;9.222;2023-06-26T05:32:52;13.23;;;9.10;;
75169;SDS011;63749;49.186;9.222;2023-06-26T05:35:22;13.60;;;8.93;;
75169;SDS011;63749;49.186;9.222;2023-06-26T05:37:48;12.90;;;8.68;;
75169;SDS011;63749;49.186;9.222;2023-06-26T05:40:15;14.37;;;9.50;;
75169;SDS011;63749;49.186;9.222;2023-06-26T05:42:44;13.63;;;9.25;;
75169;SDS011;63749;49.186;9.222;2023-06-26T05:45:10;14.82;;;8.95;;
75169;SDS011;63749;49.186;9.222;2023-06-26T05:47:36;12.90;;;8.50;;
75169;SDS011;63749;49.186;9.222;2023-06-26T05:50:02;13.20;;;8.65;;
75169;SDS011;63749;49.186;9.222;2023-06-26T05:52:28;13.40;;;9.45;;
75169;SDS011;63749;49.186;9.222;2023-06-26T05:54:54;13.82;;;8.98;;
75169;SDS011;63749;49.186;9.222;2023-06-26T05:57:23;16.88;;;9.15;;
75169;SDS011;63749;49.186;9.222;2023-06-26T05:59:49;18.17;;;9.17;;
75169;SDS011;63749;49.186;9.222;2023-06-26T06:02:15;14.52;;;9.93;;
75169;SDS011;63749;49.186;9.222;2023-06-26T06:04:40;14.67;;;9.33;;
75169;SDS011;63749;49.186;9.222;2023-06-26T06:07:06;14.27;;;9.60;;
75169;SDS011;63749;49.186;9.222;2023-06-26T06:09:31;18.03;;;9.17;;
75169;SDS011;63749;49.186;9.222;2023-06-26T06:11:57;14.80;;;9.25;;
75169;SDS011;63749;49.186;9.222;2023-06-26T06:14:23;15.43;;;9.13;;
75169;SDS011;63749;49.186;9.222;2023-06-26T06:16:48;14.87;;;9.63;;
75169;SDS011;63749;49.186;9.222;2023-06-26T06:19:14;16.77;;;9.50;;
75169;SDS011;63749;49.186;9.222;2023-06-26T06:21:39;15.80;;;8.97;;
75169;SDS011;63749;49.186;9.222;2023-06-26T06:24:05;17.20;;;9.47;;
75169;SDS011;63749;49.186;9.222;2023-06-26T06:26:32;16.90;;;9.48;;
75169;SDS011;63749;49.186;9.222;2023-06-26T06:28:57;14.43;;;9.38;;
75169;SDS011;63749;49.186;9.222;2023-06-26T06:31:23;20.93;;;9.90;;
75169;SDS011;63749;49.186;9.222;2023-06-26T06:33:48;13.17;;;9.57;;
75169;SDS011;63749;49.186;9.222;2023-06-26T06:36:13;16.60;;;9.40;;
75169;SDS011;63749;49.186;9.222;2023-06-26T06:38:39;15.63;;;9.00;;
75169;SDS011;63749;49.186;9.222;2023-06-26T06:41:08;19.52;;;9.27;;
75169;SDS011;63749;49.186;9.222;2023-06-26T06:43:33;15.73;;;9.37;;
75169;SDS011;63749;49.186;9.222;2023-06-26T06:45:59;19.40;;;9.27;;
75169;SDS011;63749;49.186;9.222;2023-06-26T06:48:24;15.43;;;9.10;;
75169;SDS011;63749;49.186;9.222;2023-06-26T06:50:49;17.30;;;8.37;;
75169;SDS011;63749;49.186;9.222;2023-06-26T06:53:15;13.77;;;9.00;;
75169;SDS011;63749;49.186;9.222;2023-06-26T06:55:40;18.17;;;9.23;;
75169;SDS011;63749;49.186;9.222;2023-06-26T06:58:05;14.80;;;9.10;;
75169;SDS011;63749;49.186;9.222;2023-06-26T07:00:31;17.83;;;9.00;;
75169;SDS011;63749;49.186;9.222;2023-06-26T07:02:56;17.67;;;9.45;;
75169;SDS011;63749;49.186;9.222;2023-06-26T07:05:22;17.83;;;9.07;;
75169;SDS011;63749;49.186;9.222;2023-06-26T07:07:47;19.40;;;9.40;;
75169;SDS011;63749;49.186;9.222;2023-06-26T07:10:13;17.10;;;9.20;;
75169;SDS011;63749;49.186;9.222;2023-06-26T07:12:38;15.90;;;8.40;;
75169;SDS011;63749;49.186;9.222;2023-06-26T07:15:04;17.50;;;8.40;;
75169;SDS011;63749;49.186;9.222;2023-06-26T07:17:31;15.10;;;8.13;;
75169;SDS011;63749;49.186;9.222;2023-06-26T07:19:57;10.43;;;7.60;;
75169;SDS011;63749;49.186;9.222;2023-06-26T07:22:23;13.53;;;7.30;;
75169;SDS011;63749;49.186;9.222;2023-06-26T07:24:48;16.47;;;7.77;;
75169;SDS011;63749;49.186;9.222;2023-06-26T07:27:14;16.80;;;8.40;;
75169;SDS011;63749;49.186;9.222;2023-06-26T07:29:40;11.77;;;7.88;;
75169;SDS011;63749;49.186;9.222;2023-06-26T07:32:06;11.93;;;7.70;;
75169;SDS011;63749;49.186;9.222;2023-06-26T07:34:31;11.23;;;7.43;;
75169;SDS011;63749;49.186;9.222;2023-06-26T07:36:57;14.40;;;7.20;;
75169;SDS011;63749;49.186;9.222;2023-06-26T07:39:22;14.02;;;7.88;;
75169;SDS011;63749;49.186;9.222;2023-06-26T07:41:47;13.13;;;7.63;;
75169;SDS011;63749;49.186;9.222;2023-06-26T07:44:13;11.00;;;7.00;;
75169;SDS011;63749;49.186;9.222;2023-06-26T07:46:39;12.82;;;7.35;;
75169;SDS011;63749;49.186;9.222;2023-06-26T07:49:05;11.77;;;7.60;;
75169;SDS011;63749;49.186;9.222;2023-06-26T07:51:31;13.85;;;7.60;;
75169;SDS011;63749;49.186;9.222;2023-06-26T07:53:57;9.87;;;7.57;;
75169;SDS011;63749;49.186;9.222;2023-06-26T07:56:22;11.50;;;6.82;;
75169;SDS011;63749;49.186;9.222;2023-06-26T07:58:47;10.27;;;7.40;;
75169;SDS011;63749;49.186;9.222;2023-06-26T08:01:13;8.93;;;7.17;;
75169;SDS011;63749;49.186;9.222;2023-06-26T08:03:38;9.57;;;7.57;;
75169;SDS011;63749;49.186;9.222;2023-06-26T08:06:03;9.90;;;6.90;;
75169;SDS011;63749;49.186;9.222;2023-06-26T08:08:29;8.97;;;6.77;;
75169;SDS011;63749;49.186;9.222;2023-06-26T08:10:54;8.82;;;7.05;;
75169;SDS011;63749;49.186;9.222;2023-06-26T08:13:20;9.00;;;6.60;;
75169;SDS011;63749;49.186;9.222;2023-06-26T08:15:45;9.50;;;6.70;;
75169;SDS011;63749;49.186;9.222;2023-06-26T08:18:10;11.30;;;6.90;;
75169;SDS011;63749;49.186;9.222;2023-06-26T08:20:36;7.77;;;6.00;;
75169;SDS011;63749;49.186;9.222;2023-06-26T08:23:03;7.90;;;6.50;;
75169;SDS011;63749;49.186;9.222;2023-06-26T08:25:29;8.07;;;6.78;;
75169;SDS011;63749;49.186;9.222;2023-06-26T08:27:54;10.87;;;6.70;;
75169;SDS011;63749;49.186;9.222;2023-06-26T08:30:20;9.88;;;6.65;;
75169;SDS011;63749;49.186;9.222;2023-06-26T08:32:46;8.70;;;6.33;;
75169;SDS011;63749;49.186;9.222;2023-06-26T08:35:11;8.48;;;6.20;;
75169;SDS011;63749;49.186;9.222;2023-06-26T08:37:37;8.13;;;6.27;;
75169;SDS011;63749;49.186;9.222;2023-06-26T08:40:03;13.35;;;6.18;;
75169;SDS011;63749;49.186;9.222;2023-06-26T08:42:29;14.07;;;6.30;;
75169;SDS011;63749;49.186;9.222;2023-06-26T08:44:54;9.07;;;6.30;;
75169;SDS011;63749;49.186;9.222;2023-06-26T08:47:20;7.63;;;6.23;;
75169;SDS011;63749;49.186;9.222;2023-06-26T08:49:46;8.52;;;6.20;;
75169;SDS011;63749;49.186;9.222;2023-06-26T08:52:24;7.60;;;6.20;;
75169;SDS011;63749;49.186;9.222;2023-06-26T08:54:58;9.98;;;6.28;;
75169;SDS011;63749;49.186;9.222;2023-06-26T08:57:24;11.10;;;6.30;;
75169;SDS011;63749;49.186;9.222;2023-06-26T08:59:51;10.45;;;6.30;;
75169;SDS011;63749;49.186;9.222;2023-06-26T09:02:17;12.07;;;6.28;;
75169;SDS011;63749;49.186;9.222;2023-06-26T09:04:42;8.40;;;6.20;;
75169;SDS011;63749;49.186;9.222;2023-06-26T09:07:08;8.95;;;6.05;;
75169;SDS011;63749;49.186;9.222;2023-06-26T09:09:34;10.87;;;6.00;;
75169;SDS011;63749;49.186;9.222;2023-06-26T09:12:00;7.63;;;5.50;;
75169;SDS011;63749;49.186;9.222;2023-06-26T09:14:27;10.50;;;5.85;;
75169;SDS011;63749;49.186;9.222;2023-06-26T09:16:53;7.47;;;5.90;;
75169;SDS011;63749;49.186;9.222;2023-06-26T09:19:18;13.40;;;5.93;;
75169;SDS011;63749;49.186;9.222;2023-06-26T09:21:44;11.00;;;5.70;;
75169;SDS011;63749;49.186;9.222;2023-06-26T09:24:09;7.30;;;5.80;;
75169;SDS011;63749;49.186;9.222;2023-06-26T09:26:36;7.60;;;5.40;;
75169;SDS011;63749;49.186;9.222;2023-06-26T09:29:02;6.90;;;5.72;;
75169;SDS011;63749;49.186;9.222;2023-06-26T09:31:28;8.88;;;5.90;;
75169;SDS011;63749;49.186;9.222;2023-06-26T09:34:00;8.13;;;5.80;;
75169;SDS011;63749;49.186;9.222;2023-06-26T09:36:27;9.53;;;5.90;;
75169;SDS011;63749;49.186;9.222;2023-06-26T09:38:57;7.32;;;5.80;;
75169;SDS011;63749;49.186;9.222;2023-06-26T09:41:23;7.95;;;5.90;;
75169;SDS011;63749;49.186;9.222;2023-06-26T09:43:49;9.27;;;5.90;;
75169;SDS011;63749;49.186;9.222;2023-06-26T09:46:16;8.32;;;6.10;;
75169;SDS011;63749;49.186;9.222;2023-06-26T09:48:43;9.98;;;6.47;;
75169;SDS011;63749;49.186;9.222;2023-06-26T09:51:09;7.87;;;6.20;;
75169;SDS011;63749;49.186;9.222;2023-06-26T09:53:35;8.48;;;6.30;;
75169;SDS011;63749;49.186;9.222;2023-06-26T09:56:07;9.57;;;6.18;;
75169;SDS011;63749;49.186;9.222;2023-06-26T09:58:42;10.90;;;6.50;;
75169;SDS011;63749;49.186;9.222;2023-06-26T10:01:08;10.35;;;6.28;;
75169;SDS011;63749;49.186;9.222;2023-06-26T10:03:34;8.48;;;6.10;;
75169;SDS011;63749;49.186;9.222;2023-06-26T10:06:00;9.70;;;5.68;;
75169;SDS011;63749;49.186;9.222;2023-06-26T10:08:27;9.93;;;6.10;;
75169;SDS011;63749;49.186;9.222;2023-06-26T10:10:53;13.43;;;6.10;;
75169;SDS011;63749;49.186;9.222;2023-06-26T10:13:22;9.38;;;6.68;;
75169;SDS011;63749;49.186;9.222;2023-06-26T10:15:52;10.52;;;6.30;;
75169;SDS011;63749;49.186;9.222;2023-06-26T10:18:19;11.27;;;6.68;;
75169;SDS011;63749;49.186;9.222;2023-06-26T10:20:48;15.63;;;7.00;;
75169;SDS011;63749;49.186;9.222;2023-06-26T10:23:18;11.55;;;6.90;;
75169;SDS011;63749;49.186;9.222;2023-06-26T10:25:45;8.30;;;6.78;;
75169;SDS011;63749;49.186;9.222;2023-06-26T10:28:13;15.45;;;6.70;;
75169;SDS011;63749;49.186;9.222;2023-06-26T10:30:41;8.77;;;6.80;;
75169;SDS011;63749;49.186;9.222;2023-06-26T10:33:09;8.83;;;7.00;;
75169;SDS011;63749;49.186;9.222;2023-06-26T10:35:40;11.85;;;7.00;;
75169;SDS011;63749;49.186;9.222;2023-06-26T10:38:07;10.88;;;7.15;;
75169;SDS011;63749;49.186;9.222;2023-06-26T10:40:43;11.07;;;6.97;;
75169;SDS011;63749;49.186;9.222;2023-06-26T10:43:11;11.95;;;7.53;;
75169;SDS011;63749;49.186;9.222;2023-06-26T10:45:43;14.93;;;7.87;;
75169;SDS011;63749;49.186;9.222;2023-06-26T10:48:17;13.38;;;7.30;;
75169;SDS011;63749;49.186;9.222;2023-06-26T10:50:42;10.15;;;7.30;;
75169;SDS011;63749;49.186;9.222;2023-06-26T10:53:42;11.00;;;7.33;;
75169;SDS011;63749;49.186;9.222;2023-06-26T10:56:04;10.13;;;7.13;;
75169;SDS011;63749;49.186;9.222;2023-06-26T11:03:41;9.80;;;7.53;;
75169;SDS011;63749;49.186;9.222;2023-06-26T11:06:09;9.43;;;7.37;;
75169;SDS011;63749;49.186;9.222;2023-06-26T11:08:48;9.13;;;7.53;;
75169;SDS011;63749;49.186;9.222;2023-06-26T11:11:20;10.93;;;7.38;;
75169;SDS011;63749;49.186;9.222;2023-06-26T11:13:46;10.80;;;7.75;;
75169;SDS011;63749;49.186;9.222;2023-06-26T11:16:13;14.32;;;7.35;;
75169;SDS011;63749;49.186;9.222;2023-06-26T11:18:39;9.67;;;7.13;;
75169;SDS011;63749;49.186;9.222;2023-06-26T11:23:31;14.13;;;6.83;;
75169;SDS011;63749;49.186;9.222;2023-06-26T11:26:11;8.00;;;6.80;;
75169;SDS011;63749;49.186;9.222;2023-06-26T11:28:57;13.70;;;6.88;;
75169;SDS011;63749;49.186;9.222;2023-06-26T11:33:55;10.77;;;7.35;;
75169;SDS011;63749;49.186;9.222;2023-06-26T11:36:25;11.30;;;7.05;;
75169;SDS011;63749;49.186;9.222;2023-06-26T11:38:55;9.80;;;6.90;;
75169;SDS011;63749;49.186;9.222;2023-06-26T11:41:21;11.95;;;7.15;;
75169;SDS011;63749;49.186;9.222;2023-06-26T11:43:47;10.20;;;6.93;;
75169;SDS011;63749;49.186;9.222;2023-06-26T11:46:16;10.40;;;7.43;;
75169;SDS011;63749;49.186;9.222;2023-06-26T11:48:42;11.63;;;7.43;;
75169;SDS011;63749;49.186;9.222;2023-06-26T11:51:08;10.23;;;7.22;;
75169;SDS011;63749;49.186;9.222;2023-06-26T11:53:39;14.97;;;7.67;;
75169;SDS011;63749;49.186;9.222;2023-06-26T11:56:09;11.07;;;7.18;;
75169;SDS011;63749;49.186;9.222;2023-06-26T11:58:35;11.67;;;6.90;;
75169;SDS011;63749;49.186;9.222;2023-06-26T12:01:02;9.68;;;7.25;;
75169;SDS011;63749;49.186;9.222;2023-06-26T12:03:28;10.53;;;7.37;;
75169;SDS011;63749;49.186;9.222;2023-06-26T12:05:54;11.88;;;7.32;;
75169;SDS011;63749;49.186;9.222;2023-06-26T12:08:20;11.32;;;6.88;;
75169;SDS011;63749;49.186;9.222;2023-06-26T12:10:46;10.75;;;7.15;;
75169;SDS011;63749;49.186;9.222;2023-06-26T12:13:11;10.60;;;7.00;;
75169;SDS011;63749;49.186;9.222;2023-06-26T12:15:37;12.43;;;6.70;;
75169;SDS011;63749;49.186;9.222;2023-06-26T12:18:08;11.02;;;6.93;;
75169;SDS011;63749;49.186;9.222;2023-06-26T12:20:39;11.93;;;7.00;;
75169;SDS011;63749;49.186;9.222;2023-06-26T12:23:11;17.10;;;6.88;;
75169;SDS011;63749;49.186;9.222;2023-06-26T12:25:37;13.50;;;6.90;;
75169;SDS011;63749;49.186;9.222;2023-06-26T12:28:02;12.87;;;7.20;;
75169;SDS011;63749;49.186;9.222;2023-06-26T12:30:27;10.80;;;7.30;;
75169;SDS011;63749;49.186;9.222;2023-06-26T12:32:53;12.60;;;7.73;;
75169;SDS011;63749;49.186;9.222;2023-06-26T12:35:18;9.90;;;7.63;;
75169;SDS011;63749;49.186;9.222;2023-06-26T12:37:44;12.90;;;8.07;;
75169;SDS011;63749;49.186;9.222;2023-06-26T12:40:17;14.40;;;7.50;;
75169;SDS011;63749;49.186;9.222;2023-06-26T12:42:49;8.13;;;7.20;;
75169;SDS011;63749;49.186;9.222;2023-06-26T12:45:14;11.93;;;7.40;;
75169;SDS011;63749;49.186;9.222;2023-06-26T12:47:40;24.30;;;7.80;;
75169;SDS011;63749;49.186;9.222;2023-06-26T12:50:08;11.87;;;7.57;;
75169;SDS011;63749;49.186;9.222;2023-06-26T12:52:34;10.15;;;7.35;;
75169;SDS011;63749;49.186;9.222;2023-06-26T12:54:59;10.73;;;6.60;;
75169;SDS011;63749;49.186;9.222;2023-06-26T12:57:25;10.13;;;7.27;;
75169;SDS011;63749;49.186;9.222;2023-06-26T12:59:51;10.93;;;7.40;;
75169;SDS011;63749;49.186;9.222;2023-06-26T13:02:16;10.13;;;7.53;;
75169;SDS011;63749;49.186;9.222;2023-06-26T13:04:42;9.50;;;7.40;;
75169;SDS011;63749;49.186;9.222;2023-06-26T13:07:09;11.55;;;7.45;;
75169;SDS011;63749;49.186;9.222;2023-06-26T13:09:35;10.65;;;7.38;;
75169;SDS011;63749;49.186;9.222;2023-06-26T13:12:07;12.10;;;7.20;;
75169;SDS011;63749;49.186;9.222;2023-06-26T15:06:02;15.43;;;6.65;;
75169;SDS011;63749;49.186;9.222;2023-06-26T15:11:56;15.63;;;7.57;;
75169;SDS011;63749;49.186;9.222;2023-06-26T16:05:29;6.13;;;4.00;;
75169;SDS011;63749;49.186;9.222;2023-06-26T16:53:07;4.22;;;2.95;;
75169;SDS011;63749;49.186;9.222;2023-06-26T19:35:15;6.10;;;1.60;;
75169;SDS011;63749;49.186;9.222;2023-06-26T19:37:40;2.78;;;1.60;;
75169;SDS011;63749;49.186;9.222;2023-06-26T19:40:06;3.57;;;1.83;;
75169;SDS011;63749;49.186;9.222;2023-06-26T19:42:32;4.45;;;1.80;;
75169;SDS011;63749;49.186;9.222;2023-06-26T19:44:58;4.70;;;1.93;;
75169;SDS011;63749;49.186;9.222;2023-06-26T19:47:24;7.20;;;2.00;;
75169;SDS011;63749;49.186;9.222;2023-06-26T19:49:50;5.60;;;2.23;;
75169;SDS011;63749;49.186;9.222;2023-06-26T19:52:15;4.13;;;1.55;;
75169;SDS011;63749;49.186;9.222;2023-06-26T19:54:41;4.03;;;1.63;;
75169;SDS011;63749;49.186;9.222;2023-06-26T19:57:06;5.35;;;1.70;;
75169;SDS011;63749;49.186;9.222;2023-06-26T19:59:36;6.37;;;1.70;;
75169;SDS011;63749;49.186;9.222;2023-06-26T20:02:03;8.15;;;1.98;;
75169;SDS011;63749;49.186;9.222;2023-06-26T20:04:29;3.88;;;1.77;;
75169;SDS011;63749;49.186;9.222;2023-06-26T20:06:55;4.70;;;2.03;;
75169;SDS011;63749;49.186;9.222;2023-06-26T20:09:26;6.35;;;1.75;;
75169;SDS011;63749;49.186;9.222;2023-06-26T20:11:53;5.38;;;1.77;;
75169;SDS011;63749;49.186;9.222;2023-06-26T20:14:18;8.03;;;1.70;;
75169;SDS011;63749;49.186;9.222;2023-06-26T20:16:44;6.00;;;1.77;;
75169;SDS011;63749;49.186;9.222;2023-06-26T20:19:09;6.37;;;1.80;;
75169;SDS011;63749;49.186;9.222;2023-06-26T20:21:34;7.17;;;1.80;;
75169;SDS011;63749;49.186;9.222;2023-06-26T20:24:00;5.13;;;1.70;;
75169;SDS011;63749;49.186;9.222;2023-06-26T20:26:25;5.87;;;1.80;;
75169;SDS011;63749;49.186;9.222;2023-06-26T20:28:50;3.77;;;1.80;;
75169;SDS011;63749;49.186;9.222;2023-06-26T20:31:16;6.97;;;1.87;;
75169;SDS011;63749;49.186;9.222;2023-06-26T20:33:41;6.60;;;1.75;;
75169;SDS011;63749;49.186;9.222;2023-06-26T20:36:07;5.63;;;1.90;;
75169;SDS011;63749;49.186;9.222;2023-06-26T20:38:32;8.00;;;2.00;;
75169;SDS011;63749;49.186;9.222;2023-06-26T20:40:58;7.03;;;1.97;;
75169;SDS011;63749;49.186;9.222;2023-06-26T20:43:23;4.70;;;1.90;;
75169;SDS011;63749;49.186;9.222;2023-06-26T20:45:49;3.42;;;1.80;;
75169;SDS011;63749;49.186;9.222;2023-06-26T20:48:15;5.73;;;2.00;;
75169;SDS011;63749;49.186;9.222;2023-06-26T20:50:41;7.30;;;1.80;;
75169;SDS011;63749;49.186;9.222;2023-06-26T20:53:06;8.53;;;2.20;;
75169;SDS011;63749;49.186;9.222;2023-06-26T20:55:32;5.45;;;2.17;;
75169;SDS011;63749;49.186;9.222;2023-06-26T20:57:58;7.57;;;1.95;;
75169;SDS011;63749;49.186;9.222;2023-06-26T21:00:23;4.60;;;1.77;;
75169;SDS011;63749;49.186;9.222;2023-06-26T21:02:49;5.63;;;2.00;;